Time;durP1;ratioP1;P1;durP2;ratioP2;P2;SDS_P1;SDS_P2;PMS_P1;PMS_P2;Temp;Humidity;BMP_temperature;BMP_pressure;BME280_temperature;BME280_humidity;BME280_pressure;Samples;Min_cycle;Max_cycle;Signal;HPM_P1;HPM_P2
2022/01/19 00:00:20;;;;;;;18.63;17.67;;;7.50;82.00;;;;;;4956957;28;20034;-81
2022/01/19 00:02:46;;;;;;;18.77;17.87;;;7.60;82.00;;;;;;4990139;28;20038;-81
2022/01/19 00:05:12;;;;;;;18.60;17.43;;;7.50;82.00;;;;;;4975909;28;20031;-81
2022/01/19 00:07:38;;;;;;;18.60;17.60;;;7.50;82.00;;;;;;4984982;28;20035;-81
2022/01/19 00:10:09;;;;;;;17.88;16.90;;;7.50;82.00;;;;;;4982700;28;20041;-81
2022/01/19 00:12:35;;;;;;;17.55;16.75;;;7.50;82.10;;;;;;4982636;28;20059;-81
2022/01/19 00:15:01;;;;;;;18.17;17.17;;;7.50;82.20;;;;;;4991679;28;20398;-81
2022/01/19 00:17:27;;;;;;;18.27;17.07;;;7.60;82.20;;;;;;4991933;28;20042;-81
2022/01/19 00:19:53;;;;;;;18.23;17.13;;;7.60;82.10;;;;;;4989486;28;20030;-81
2022/01/19 00:22:19;;;;;;;18.63;17.63;;;7.60;82.00;;;;;;4988326;28;20069;-81
2022/01/19 00:24:46;;;;;;;17.77;16.97;;;7.60;82.00;;;;;;4989000;28;20027;-81
2022/01/19 00:27:12;;;;;;;19.37;18.40;;;7.60;81.90;;;;;;4979263;28;20034;-81
2022/01/19 00:29:38;;;;;;;18.10;17.30;;;7.60;82.00;;;;;;4992575;28;20031;-81
2022/01/19 00:32:04;;;;;;;17.57;16.57;;;7.60;82.00;;;;;;4979210;28;20050;-81
2022/01/19 00:34:30;;;;;;;19.30;18.10;;;7.60;82.00;;;;;;4986349;28;20026;-81
2022/01/19 00:36:56;;;;;;;17.97;17.07;;;7.60;82.00;;;;;;4975212;28;20046;-81
2022/01/19 00:39:24;;;;;;;19.33;17.97;;;7.70;82.00;;;;;;4986752;28;20046;-81
2022/01/19 00:41:50;;;;;;;18.87;17.97;;;7.70;82.00;;;;;;4979325;28;20043;-81
2022/01/19 00:44:16;;;;;;;19.03;18.10;;;7.60;81.90;;;;;;4989553;28;20038;-81
2022/01/19 00:46:43;;;;;;;18.93;17.93;;;7.70;82.00;;;;;;4988136;28;20030;-81
2022/01/19 00:49:09;;;;;;;19.30;18.30;;;7.70;82.00;;;;;;4985478;28;20487;-81
2022/01/19 00:51:35;;;;;;;18.40;17.40;;;7.70;82.00;;;;;;4984586;28;20030;-81
2022/01/19 00:54:01;;;;;;;19.43;18.53;;;7.70;81.90;;;;;;4980107;28;20038;-81
2022/01/19 00:56:27;;;;;;;19.10;17.90;;;7.70;81.90;;;;;;4987266;28;20031;-81
2022/01/19 00:58:53;;;;;;;18.77;17.67;;;7.60;81.90;;;;;;4989872;28;20042;-81
2022/01/19 01:01:19;;;;;;;18.30;17.40;;;7.60;81.90;;;;;;4984615;28;20049;-81
2022/01/19 01:03:45;;;;;;;18.63;17.73;;;7.60;81.90;;;;;;4982127;28;20034;-81
2022/01/19 01:06:11;;;;;;;18.87;17.80;;;7.60;81.90;;;;;;4986220;28;20034;-81
2022/01/19 01:08:37;;;;;;;18.00;17.10;;;7.60;81.90;;;;;;4993460;28;20414;-81
2022/01/19 01:11:03;;;;;;;18.55;17.65;;;7.60;81.90;;;;;;4979262;28;20419;-82
2022/01/19 01:15:25;;;;;;;19.30;17.95;;;7.60;81.90;;;;;;4985755;28;20423;-81
2022/01/19 01:16:29;;;;;;;19.13;18.13;;;7.60;81.90;;;;;;4985614;28;20138;-81
2022/01/19 01:18:55;;;;;;;19.23;18.13;;;7.60;81.90;;;;;;4987179;28;20039;-81
2022/01/19 01:21:21;;;;;;;19.33;18.00;;;7.50;81.90;;;;;;4979025;28;20038;-81
2022/01/19 01:23:47;;;;;;;18.33;17.43;;;7.60;81.90;;;;;;4992831;28;20065;-81
2022/01/19 01:26:14;;;;;;;20.57;19.40;;;7.60;82.00;;;;;;4976477;28;20027;-81
2022/01/19 01:28:40;;;;;;;18.57;17.30;;;7.50;81.90;;;;;;4988775;28;20034;-81
2022/01/19 01:31:09;;;;;;;18.73;17.83;;;7.50;81.90;;;;;;4985259;28;20034;-81
2022/01/19 01:33:38;;;;;;;19.43;18.30;;;7.50;82.00;;;;;;4982289;28;20041;-81
2022/01/19 01:36:04;;;;;;;18.80;17.40;;;7.50;82.00;;;;;;4984639;28;20018;-81
2022/01/19 01:38:30;;;;;;;17.97;17.07;;;7.50;82.10;;;;;;4984256;28;20041;-81
2022/01/19 01:40:56;;;;;;;19.00;18.00;;;7.50;82.10;;;;;;4981638;28;20023;-81
2022/01/19 01:43:22;;;;;;;17.57;16.70;;;7.50;82.10;;;;;;4981480;28;20035;-81
2022/01/19 01:45:53;;;;;;;18.10;17.07;;;7.50;82.10;;;;;;4979259;28;20035;-81
2022/01/19 01:48:23;;;;;;;18.63;17.63;;;7.50;82.00;;;;;;4993749;28;20033;-81
2022/01/19 01:53:34;;;;;;;17.63;16.80;;;7.50;82.00;;;;;;4995742;28;20049;-81
2022/01/19 01:56:09;;;;;;;18.40;17.50;;;7.50;82.00;;;;;;4989032;28;20035;-81
2022/01/19 01:58:37;;;;;;;17.73;16.83;;;7.50;82.00;;;;;;4983568;28;20046;-81
2022/01/19 02:01:04;;;;;;;16.93;16.03;;;7.50;82.00;;;;;;4980862;28;20049;-81
2022/01/19 02:03:37;;;;;;;18.57;17.63;;;7.50;81.90;;;;;;4988250;28;20026;-81
2022/01/19 02:09:13;;;;;;;19.17;18.07;;;7.50;82.00;;;;;;4991711;28;20417;-81
2022/01/19 02:23:03;;;;;;;19.73;18.63;;;7.50;81.90;;;;;;4977705;28;20057;-81
2022/01/19 02:25:35;;;;;;;17.45;16.58;;;7.50;81.90;;;;;;4986616;28;20057;-81
2022/01/19 02:41:39;;;;;;;18.63;17.63;;;7.50;82.00;;;;;;4991118;28;20037;-81
2022/01/19 02:44:05;;;;;;;17.17;16.37;;;7.50;82.00;;;;;;4987298;28;20045;-81
2022/01/19 02:46:42;;;;;;;17.93;17.13;;;7.50;82.40;;;;;;4981862;28;20042;-81
2022/01/19 02:49:16;;;;;;;18.50;17.50;;;7.50;82.00;;;;;;4979748;28;20037;-81
2022/01/19 02:51:47;;;;;;;19.33;18.23;;;7.50;82.00;;;;;;4979676;28;20023;-81
2022/01/19 02:54:14;;;;;;;18.17;17.27;;;7.50;82.00;;;;;;4976189;28;20034;-81
2022/01/19 02:56:43;;;;;;;18.03;17.13;;;7.50;82.00;;;;;;4976138;28;20026;-81
2022/01/19 02:59:20;;;;;;;18.40;17.40;;;7.40;81.90;;;;;;4987173;28;20030;-81
2022/01/19 03:09:45;;;;;;;17.03;16.23;;;7.40;82.00;;;;;;4985766;28;20049;-81
2022/01/19 03:12:11;;;;;;;22.67;21.57;;;7.40;82.10;;;;;;4981538;28;20034;-81
2022/01/19 03:14:38;;;;;;;18.70;17.70;;;7.40;82.20;;;;;;4987444;28;20031;-81
2022/01/19 03:17:05;;;;;;;18.70;17.80;;;7.40;82.20;;;;;;4984385;28;20042;-81
2022/01/19 03:19:32;;;;;;;19.83;18.83;;;7.40;82.20;;;;;;4985545;28;20031;-81
2022/01/19 03:21:58;;;;;;;18.40;17.40;;;7.40;82.20;;;;;;4983010;28;20039;-82
2022/01/19 03:24:24;;;;;;;18.93;17.90;;;7.40;82.20;;;;;;4978196;28;20479;-81
2022/01/19 03:26:50;;;;;;;18.63;17.73;;;7.40;82.20;;;;;;4969144;28;20022;-81
2022/01/19 03:29:17;;;;;;;17.13;16.33;;;7.40;82.20;;;;;;4989408;28;20038;-81
2022/01/19 03:31:43;;;;;;;18.87;17.87;;;7.40;82.20;;;;;;4995674;28;20038;-81
2022/01/19 03:34:10;;;;;;;18.27;17.37;;;7.40;82.10;;;;;;4977303;28;20038;-81
2022/01/19 03:36:37;;;;;;;18.03;17.13;;;7.40;82.10;;;;;;4981166;28;20042;-81
2022/01/19 03:39:03;;;;;;;17.83;17.03;;;7.40;82.10;;;;;;4980983;28;20026;-81
2022/01/19 03:41:29;;;;;;;18.33;17.43;;;7.40;82.20;;;;;;4983167;28;20034;-81
2022/01/19 03:43:55;;;;;;;17.67;16.83;;;7.40;82.10;;;;;;4988001;28;20046;-81
2022/01/19 03:46:29;;;;;;;17.37;16.57;;;7.40;82.20;;;;;;4983794;28;20050;-81
2022/01/19 03:48:57;;;;;;;18.67;17.67;;;7.40;82.20;;;;;;4981050;28;20127;-81
2022/01/19 03:51:24;;;;;;;18.03;16.90;;;7.40;82.10;;;;;;4984236;28;20046;-81
2022/01/19 03:53:50;;;;;;;18.97;17.87;;;7.40;82.10;;;;;;4979413;28;20034;-81
2022/01/19 03:56:16;;;;;;;18.17;17.27;;;7.40;82.10;;;;;;4962187;28;20027;-81
2022/01/19 03:58:43;;;;;;;18.57;17.57;;;7.40;82.10;;;;;;4999539;28;20383;-81
2022/01/19 04:01:09;;;;;;;18.47;17.53;;;7.50;82.20;;;;;;4986394;28;20045;-81
2022/01/19 04:06:21;;;;;;;18.53;17.53;;;7.40;82.20;;;;;;4994655;28;20046;-81
2022/01/19 04:08:47;;;;;;;18.33;17.37;;;7.50;82.20;;;;;;4985234;28;20276;-78
2022/01/19 04:11:16;;;;;;;17.13;16.33;;;7.50;82.20;;;;;;4987645;28;20039;-78
2022/01/19 04:14:21;;;;;;;19.00;18.00;;;7.40;82.10;;;;;;4990075;28;20054;-78
2022/01/19 04:16:31;;;;;;;20.00;17.07;;;7.40;82.10;;;;;;4986571;28;20038;-78
2022/01/19 04:19:09;;;;;;;17.90;17.10;;;7.40;82.90;;;;;;4991335;28;20037;-78
2022/01/19 04:21:35;;;;;;;17.00;16.20;;;7.40;82.20;;;;;;4989211;28;20030;-80
2022/01/19 04:24:01;;;;;;;18.10;17.20;;;7.40;82.10;;;;;;4985384;28;20049;-79
2022/01/19 04:26:27;;;;;;;18.47;17.57;;;7.40;82.20;;;;;;4988322;28;20313;-80
2022/01/19 04:28:53;;;;;;;18.00;17.13;;;7.40;82.20;;;;;;4980919;28;20047;-79
2022/01/19 04:31:19;;;;;;;18.83;17.73;;;7.40;82.20;;;;;;4988319;28;20031;-79
2022/01/19 04:33:46;;;;;;;18.03;17.17;;;7.40;82.30;;;;;;4991003;28;20077;-79
2022/01/19 04:44:32;;;;;;;18.93;17.93;;;7.40;82.30;;;;;;4992176;28;20041;-79
2022/01/19 05:03:36;;;;;;;19.77;18.37;;;7.40;82.20;;;;;;4987037;28;20050;-78
2022/01/19 05:06:09;;;;;;;18.97;17.90;;;7.40;82.30;;;;;;4980621;28;20030;-78
2022/01/19 05:13:52;;;;;;;19.53;18.13;;;7.40;82.30;;;;;;4988168;28;20045;-78
2022/01/19 05:16:22;;;;;;;18.50;17.60;;;7.30;82.20;;;;;;4993049;28;20034;-78
2022/01/19 05:18:48;;;;;;;18.23;17.33;;;7.40;82.30;;;;;;4984248;28;20400;-78
2022/01/19 05:21:15;;;;;;;16.70;15.90;;;7.30;82.20;;;;;;4989663;28;20022;-78
2022/01/19 05:23:41;;;;;;;18.30;17.40;;;7.30;82.20;;;;;;4982548;28;20050;-77
2022/01/19 05:26:07;;;;;;;18.50;17.40;;;7.30;82.20;;;;;;4988845;28;20030;-77
2022/01/19 05:28:33;;;;;;;18.90;17.93;;;7.40;82.30;;;;;;4986156;28;20035;-81
2022/01/19 05:30:59;;;;;;;17.83;16.97;;;7.40;82.30;;;;;;4990475;28;20045;-77
2022/01/19 05:33:25;;;;;;;18.80;17.80;;;7.30;82.20;;;;;;4990542;28;20034;-77
2022/01/19 05:35:51;;;;;;;18.43;17.53;;;7.30;82.20;;;;;;4990544;28;20026;-77
2022/01/19 05:38:17;;;;;;;18.50;17.40;;;7.30;82.30;;;;;;4985902;28;20464;-78
2022/01/19 05:40:44;;;;;;;17.63;16.73;;;7.40;82.40;;;;;;4982046;28;20498;-77
2022/01/19 05:43:10;;;;;;;18.37;17.27;;;7.30;82.30;;;;;;4987764;28;20042;-77
2022/01/19 05:45:36;;;;;;;17.80;16.90;;;7.40;82.30;;;;;;4991315;28;20423;-78
2022/01/19 05:48:02;;;;;;;18.73;17.77;;;7.40;82.30;;;;;;4992744;28;20026;-77
2022/01/19 05:50:28;;;;;;;17.57;16.47;;;7.30;82.30;;;;;;4990942;28;20034;-78
2022/01/19 05:52:54;;;;;;;16.93;16.13;;;7.30;82.20;;;;;;4991345;28;20038;-77
2022/01/19 05:55:20;;;;;;;17.20;16.40;;;7.30;82.30;;;;;;4989651;28;20435;-77
2022/01/19 05:57:46;;;;;;;18.23;17.33;;;7.30;82.30;;;;;;4989411;28;20030;-77
2022/01/19 06:00:13;;;;;;;18.63;17.10;;;7.30;82.40;;;;;;4988171;28;20037;-78
2022/01/19 06:02:39;;;;;;;19.53;18.33;;;7.30;82.50;;;;;;4978300;28;20034;-77
2022/01/19 06:05:05;;;;;;;17.10;16.30;;;7.30;82.40;;;;;;4978785;28;20039;-77
2022/01/19 06:07:40;;;;;;;18.10;16.90;;;7.30;82.30;;;;;;4978692;28;20026;-79
2022/01/19 06:10:09;;;;;;;17.92;16.88;;;7.30;82.30;;;;;;4985174;28;20018;-80
2022/01/19 06:12:36;;;;;;;16.83;16.03;;;7.40;82.40;;;;;;4991907;28;20046;-80
2022/01/19 06:15:02;;;;;;;18.40;17.43;;;7.30;82.30;;;;;;4983575;28;20070;-81
2022/01/19 06:17:28;;;;;;;18.50;17.30;;;7.40;82.40;;;;;;4988642;28;20035;-81
2022/01/19 06:19:54;;;;;;;17.07;16.27;;;7.30;82.30;;;;;;4975047;28;20043;-79
2022/01/19 06:22:21;;;;;;;17.60;16.70;;;7.30;82.30;;;;;;4988186;28;20047;-79
2022/01/19 06:24:48;;;;;;;17.27;16.37;;;7.40;82.40;;;;;;4989696;28;20046;-79
2022/01/19 06:27:14;;;;;;;17.70;16.73;;;7.30;82.30;;;;;;4981581;28;20034;-79
2022/01/19 06:29:40;;;;;;;17.80;16.93;;;7.30;82.30;;;;;;4976848;28;20034;-79
2022/01/19 06:32:06;;;;;;;18.13;17.13;;;7.30;82.40;;;;;;4990818;28;20045;-79
2022/01/19 06:34:32;;;;;;;18.03;16.93;;;7.30;82.40;;;;;;4990790;28;20049;-79
2022/01/19 06:36:58;;;;;;;17.00;16.20;;;7.20;82.40;;;;;;4990543;28;20026;-79
2022/01/19 06:39:24;;;;;;;17.47;16.57;;;7.20;82.50;;;;;;4990229;28;20486;-79
2022/01/19 06:41:51;;;;;;;18.50;17.50;;;7.20;82.40;;;;;;4988071;28;20030;-79
2022/01/19 06:44:17;;;;;;;17.53;16.73;;;7.30;82.60;;;;;;4992698;28;20487;-79
2022/01/19 06:46:43;;;;;;;18.27;16.93;;;7.20;82.50;;;;;;4979975;28;20043;-79
2022/01/19 06:49:09;;;;;;;17.53;16.60;;;7.30;82.60;;;;;;4983420;28;20035;-79
2022/01/19 06:51:36;;;;;;;17.17;16.30;;;7.30;82.50;;;;;;4986987;28;20030;-79
2022/01/19 06:54:02;;;;;;;20.83;18.97;;;7.30;82.50;;;;;;4992199;28;20049;-79
2022/01/19 06:56:28;;;;;;;18.47;17.30;;;7.30;82.50;;;;;;4976384;28;20399;-80
2022/01/19 06:58:54;;;;;;;18.67;17.57;;;7.30;82.50;;;;;;4985380;28;20038;-79
2022/01/19 07:01:20;;;;;;;17.57;16.67;;;7.30;82.50;;;;;;4989972;28;20037;-79
2022/01/19 07:03:46;;;;;;;17.47;16.37;;;7.20;82.40;;;;;;4989791;28;20475;-80
2022/01/19 07:06:12;;;;;;;18.30;17.40;;;7.30;82.50;;;;;;4990993;28;20029;-80
2022/01/19 07:08:39;;;;;;;17.70;16.70;;;7.30;82.60;;;;;;4990927;28;20022;-79
2022/01/19 07:11:05;;;;;;;18.97;17.97;;;7.30;82.50;;;;;;5008096;28;20042;-79
2022/01/19 07:13:31;;;;;;;17.98;17.05;;;7.30;82.50;;;;;;4986597;28;20049;-79
2022/01/19 07:15:57;;;;;;;17.73;16.87;;;7.30;82.50;;;;;;4991729;28;20372;-79
2022/01/19 07:18:23;;;;;;;19.13;18.00;;;7.20;82.40;;;;;;4990936;28;20033;-80
2022/01/19 07:20:49;;;;;;;17.00;16.20;;;7.20;82.40;;;;;;4976258;28;20034;-79
2022/01/19 07:23:15;;;;;;;17.00;16.20;;;7.30;82.50;;;;;;4987258;28;20408;-80
2022/01/19 07:25:42;;;;;;;17.57;16.67;;;7.30;82.50;;;;;;4992015;28;20031;-80
2022/01/19 07:28:11;;;;;;;18.20;17.07;;;7.30;82.50;;;;;;4987188;28;20041;-81
2022/01/19 07:30:38;;;;;;;19.07;17.43;;;7.30;82.50;;;;;;4993867;28;20503;-81
2022/01/19 07:33:04;;;;;;;18.17;17.08;;;7.30;82.50;;;;;;4984525;28;20118;-80
2022/01/19 07:35:30;;;;;;;17.73;16.93;;;7.30;82.50;;;;;;4993819;28;20030;-81
2022/01/19 07:37:56;;;;;;;18.00;17.10;;;7.30;82.50;;;;;;4991345;28;20368;-82
2022/01/19 07:40:22;;;;;;;17.80;16.87;;;7.30;82.50;;;;;;4989736;28;20039;-80
2022/01/19 07:42:49;;;;;;;18.03;16.90;;;7.30;82.50;;;;;;4994468;28;20045;-81
2022/01/19 07:45:15;;;;;;;17.00;16.20;;;7.30;82.50;;;;;;4992564;28;20045;-80
2022/01/19 07:47:41;;;;;;;17.90;16.90;;;7.20;82.50;;;;;;4978476;28;20518;-79
2022/01/19 07:50:08;;;;;;;16.93;16.13;;;7.20;82.50;;;;;;4996054;28;20030;-81
2022/01/19 07:52:34;;;;;;;17.67;16.83;;;7.20;82.60;;;;;;4988407;28;20392;-81
2022/01/19 07:55:00;;;;;;;17.33;16.50;;;7.30;82.60;;;;;;4989019;28;20384;-81
2022/01/19 07:57:27;;;;;;;17.40;16.60;;;7.30;82.60;;;;;;4992386;28;20399;-80
2022/01/19 07:59:53;;;;;;;18.27;17.27;;;7.30;82.60;;;;;;4993190;28;20045;-81
2022/01/19 08:02:20;;;;;;;19.20;18.20;;;7.30;82.60;;;;;;4991943;28;20506;-81
2022/01/19 08:04:46;;;;;;;18.77;17.63;;;7.30;82.50;;;;;;5008593;28;20043;-81
2022/01/19 08:07:12;;;;;;;17.00;16.10;;;7.30;82.50;;;;;;4993607;28;20027;-84
2022/01/19 08:09:38;;;;;;;19.67;18.23;;;7.30;82.50;;;;;;4995047;28;20069;-80
2022/01/19 08:12:05;;;;;;;18.23;17.33;;;7.30;82.50;;;;;;4987904;28;20050;-81
2022/01/19 08:14:31;;;;;;;17.37;16.47;;;7.30;82.90;;;;;;4986030;28;20043;-79
2022/01/19 08:16:57;;;;;;;19.27;18.17;;;7.30;82.50;;;;;;4980566;28;20049;-81
2022/01/19 08:19:23;;;;;;;18.57;17.43;;;7.30;82.60;;;;;;4986024;28;20031;-80
2022/01/19 08:21:49;;;;;;;17.90;17.00;;;7.30;82.60;;;;;;4991777;28;20038;-82
2022/01/19 08:24:15;;;;;;;18.03;17.17;;;7.30;82.60;;;;;;4989873;28;20051;-81
2022/01/19 08:26:42;;;;;;;17.27;16.27;;;7.30;82.60;;;;;;4984120;28;20494;-81
2022/01/19 08:29:09;;;;;;;16.80;16.00;;;7.30;82.50;;;;;;4988671;28;20045;-84
2022/01/19 08:31:35;;;;;;;19.27;17.60;;;7.30;82.50;;;;;;4991460;28;20046;-80
2022/01/19 08:34:01;;;;;;;15.87;15.17;;;7.30;82.50;;;;;;4988074;28;20108;-83
2022/01/19 08:36:28;;;;;;;20.30;19.00;;;7.30;82.60;;;;;;4989098;28;20038;-81
2022/01/19 08:38:55;;;;;;;19.27;18.07;;;7.30;82.60;;;;;;4987397;28;20484;-80
2022/01/19 08:41:21;;;;;;;17.00;16.17;;;7.30;82.50;;;;;;4985671;28;20027;-81
2022/01/19 08:43:47;;;;;;;17.33;16.43;;;7.30;82.60;;;;;;4991797;28;20475;-80
2022/01/19 08:46:13;;;;;;;21.60;20.03;;;7.30;82.60;;;;;;4992135;28;20043;-80
2022/01/19 08:48:39;;;;;;;19.53;18.33;;;7.30;82.60;;;;;;4982514;28;20037;-80
2022/01/19 08:51:05;;;;;;;17.73;16.93;;;7.20;82.50;;;;;;4989930;28;20038;-83
2022/01/19 08:53:32;;;;;;;17.80;16.90;;;7.30;82.60;;;;;;4977639;28;20057;-83
2022/01/19 08:55:58;;;;;;;17.17;16.37;;;7.30;82.60;;;;;;4993918;28;20050;-83
2022/01/19 08:58:24;;;;;;;17.80;16.90;;;7.30;82.60;;;;;;4984030;28;20030;-84
2022/01/19 09:00:51;;;;;;;19.17;18.10;;;7.30;82.50;;;;;;4981186;28;20050;-82
2022/01/19 09:03:17;;;;;;;17.50;16.60;;;7.30;82.60;;;;;;4991960;28;20050;-82
2022/01/19 09:05:44;;;;;;;18.80;17.20;;;7.30;82.50;;;;;;4972159;28;20046;-82
2022/01/19 09:08:11;;;;;;;19.03;17.83;;;7.30;82.60;;;;;;4988459;28;20097;-81
2022/01/19 09:10:40;;;;;;;18.10;16.97;;;7.20;82.50;;;;;;4987934;28;20392;-81
2022/01/19 09:13:06;;;;;;;18.00;17.00;;;7.30;82.70;;;;;;4990746;28;20035;-81
2022/01/19 09:15:33;;;;;;;18.10;17.10;;;7.30;82.60;;;;;;5001819;28;20054;-80
2022/01/19 09:17:59;;;;;;;18.13;17.20;;;7.30;82.70;;;;;;4977669;28;20045;-84
2022/01/19 09:20:25;;;;;;;17.77;16.87;;;7.30;82.70;;;;;;4991955;28;20034;-82
2022/01/19 09:22:51;;;;;;;15.80;15.03;;;7.50;82.80;;;;;;4993384;28;20074;-81
2022/01/19 09:25:18;;;;;;;18.07;17.07;;;7.70;82.70;;;;;;4992977;28;20030;-82
2022/01/19 09:27:44;;;;;;;17.40;16.50;;;7.90;82.50;;;;;;4988451;28;20046;-81
2022/01/19 09:30:14;;;;;;;16.63;15.83;;;8.10;82.20;;;;;;4987111;28;20038;-81
2022/01/19 09:32:55;;;;;;;18.73;17.73;;;8.20;82.20;;;;;;4981941;28;20041;-81
2022/01/19 09:35:25;;;;;;;17.25;16.40;;;8.40;82.20;;;;;;4991083;28;20038;-81
2022/01/19 09:37:52;;;;;;;19.42;18.35;;;8.50;81.90;;;;;;5005618;28;20039;-81
2022/01/19 09:40:18;;;;;;;19.27;18.27;;;8.70;81.80;;;;;;4981609;28;20503;-81
2022/01/19 09:42:47;;;;;;;19.33;18.35;;;8.80;81.70;;;;;;4984076;28;20038;-82
2022/01/19 09:45:13;;;;;;;18.70;17.80;;;8.90;81.70;;;;;;4981271;28;20030;-82
2022/01/19 09:47:39;;;;;;;19.33;18.23;;;9.10;81.70;;;;;;4977612;28;20037;-82
2022/01/19 09:50:06;;;;;;;17.83;16.83;;;9.20;81.60;;;;;;4976389;28;20022;-82
2022/01/19 09:52:32;;;;;;;18.33;17.42;;;9.30;81.70;;;;;;4987551;28;20029;-84
2022/01/19 09:54:58;;;;;;;18.63;17.63;;;9.40;81.80;;;;;;4987163;28;20487;-84
2022/01/19 09:57:24;;;;;;;18.38;17.40;;;9.40;81.60;;;;;;4981467;28;20038;-83
2022/01/19 09:59:50;;;;;;;19.45;18.27;;;9.40;81.80;;;;;;4977454;28;20482;-83
2022/01/19 10:02:16;;;;;;;17.98;17.17;;;9.40;81.70;;;;;;4987772;28;20034;-83
2022/01/19 10:04:46;;;;;;;18.90;17.98;;;9.40;81.80;;;;;;4959843;28;20042;-83
2022/01/19 10:07:15;;;;;;;19.08;18.17;;;9.40;81.90;;;;;;4980730;28;20039;-81
2022/01/19 10:09:56;;;;;;;20.30;19.30;;;9.30;81.90;;;;;;4981607;28;20038;-82
2022/01/19 10:18:25;;;;;;;18.38;17.45;;;8.70;82.30;;;;;;4977591;28;20357;-80
2022/01/19 10:21:17;;;;;;;20.55;19.35;;;8.60;82.60;;;;;;4983937;28;20038;-83
2022/01/19 10:23:46;;;;;;;19.13;17.88;;;8.40;82.80;;;;;;4987551;28;20061;-82
2022/01/19 10:26:13;;;;;;;17.27;16.48;;;8.30;82.90;;;;;;4976612;28;20503;-81
2022/01/19 10:28:58;;;;;;;17.63;16.73;;;8.30;83.10;;;;;;4978118;28;20056;-81
2022/01/19 10:31:25;;;;;;;17.73;16.57;;;8.20;83.10;;;;;;4981743;28;20045;-83
2022/01/19 10:34:10;;;;;;;20.00;18.70;;;8.20;83.10;;;;;;4995765;28;20038;-82
2022/01/19 10:36:43;;;;;;;18.90;17.97;;;8.10;83.10;;;;;;4988207;28;20031;-80
2022/01/19 10:39:09;;;;;;;18.33;17.33;;;8.10;83.10;;;;;;4975711;28;20030;-80
2022/01/19 10:41:35;;;;;;;17.67;16.63;;;8.10;83.10;;;;;;4990977;28;20403;-80
2022/01/19 10:44:01;;;;;;;17.40;16.50;;;8.00;83.10;;;;;;4985909;28;20042;-80
2022/01/19 10:46:31;;;;;;;17.00;16.20;;;8.00;83.10;;;;;;4980482;28;20480;-80
2022/01/19 10:49:05;;;;;;;18.25;17.25;;;8.00;83.20;;;;;;4979786;28;20391;-80
2022/01/19 10:51:37;;;;;;;19.10;17.50;;;8.00;83.20;;;;;;4977898;28;20109;-80
2022/01/19 10:54:11;;;;;;;19.25;18.25;;;8.00;83.10;;;;;;4984273;28;20042;-80
2022/01/19 10:56:37;;;;;;;18.88;17.85;;;7.90;83.10;;;;;;4973815;28;20038;-79
2022/01/19 10:59:05;;;;;;;18.50;17.58;;;7.90;83.00;;;;;;4986959;28;20061;-78
2022/01/19 11:01:40;;;;;;;18.52;17.63;;;7.90;83.00;;;;;;4980853;28;20039;-79
2022/01/19 11:04:33;;;;;;;18.83;17.80;;;7.90;83.00;;;;;;4981986;28;20045;-80
2022/01/19 11:07:07;;;;;;;19.83;18.60;;;7.90;83.00;;;;;;4983063;28;20033;-79
2022/01/19 11:09:43;;;;;;;18.92;17.67;;;7.90;83.00;;;;;;4987561;28;20038;-79
2022/01/19 11:12:13;;;;;;;19.87;18.67;;;7.90;82.90;;;;;;4988018;28;20027;-80
2022/01/19 11:14:40;;;;;;;19.07;18.07;;;7.90;82.90;;;;;;4988326;28;20517;-80
2022/01/19 11:17:06;;;;;;;18.17;17.17;;;7.90;82.90;;;;;;4970341;28;20034;-81
2022/01/19 11:19:39;;;;;;;19.63;18.52;;;7.90;82.90;;;;;;4987836;28;20030;-80
2022/01/19 11:22:13;;;;;;;18.13;17.23;;;7.90;82.80;;;;;;4982982;28;20035;-80
2022/01/19 11:24:52;;;;;;;18.77;17.85;;;7.90;82.80;;;;;;4980271;28;20037;-80
2022/01/19 11:27:19;;;;;;;19.02;17.77;;;8.00;82.80;;;;;;4987371;28;20031;-78
2022/01/19 11:29:45;;;;;;;18.17;17.33;;;8.00;82.60;;;;;;4972383;28;20486;-82
2022/01/19 11:32:18;;;;;;;17.85;16.85;;;8.10;82.60;;;;;;4974126;28;20053;-77
2022/01/19 11:34:50;;;;;;;18.58;17.67;;;8.10;82.60;;;;;;4974323;28;20043;-78
2022/01/19 11:37:34;;;;;;;18.70;17.80;;;8.10;82.60;;;;;;4978353;28;20380;-78
2022/01/19 11:40:08;;;;;;;18.77;17.67;;;8.10;82.50;;;;;;4980572;28;20046;-79
2022/01/19 11:42:34;;;;;;;19.30;18.20;;;8.10;82.40;;;;;;4986946;28;20023;-80
2022/01/19 11:45:00;;;;;;;18.63;17.70;;;8.10;82.40;;;;;;4989586;28;20031;-79
2022/01/19 11:47:29;;;;;;;18.52;17.63;;;8.20;82.50;;;;;;4988189;28;20490;-78
2022/01/19 11:50:28;;;;;;;19.52;18.42;;;8.20;82.40;;;;;;4976761;28;20439;-78
2022/01/19 11:52:55;;;;;;;20.13;18.90;;;8.20;82.40;;;;;;4987520;28;20050;-79
2022/01/19 11:55:25;;;;;;;19.08;18.17;;;8.20;82.30;;;;;;4985563;28;20042;-79
2022/01/19 11:58:24;;;;;;;19.10;18.00;;;8.20;82.30;;;;;;4982869;28;20023;-79
2022/01/19 12:00:52;;;;;;;17.27;16.48;;;8.20;82.30;;;;;;4979690;28;20244;-79
2022/01/19 12:03:21;;;;;;;19.10;18.20;;;8.20;82.30;;;;;;4974649;28;20042;-80
2022/01/19 12:05:50;;;;;;;19.60;18.58;;;8.30;82.30;;;;;;4969681;28;20039;-79
2022/01/19 12:08:23;;;;;;;19.00;18.10;;;8.30;82.20;;;;;;4974074;28;20050;-80
2022/01/19 12:10:51;;;;;;;18.60;17.75;;;8.30;82.20;;;;;;4978093;28;20049;-79
2022/01/19 12:19:06;;;;;;;19.45;18.45;;;8.30;82.20;;;;;;4977484;28;20042;-79
2022/01/19 12:21:32;;;;;;;19.20;18.25;;;8.30;82.20;;;;;;4976163;28;20057;-79
2022/01/19 12:24:25;;;;;;;19.27;18.27;;;8.30;82.10;;;;;;4977170;28;20427;-79
2022/01/19 12:27:01;;;;;;;19.20;18.30;;;8.30;82.10;;;;;;4942820;28;20035;-80
2022/01/19 12:29:33;;;;;;;18.55;17.65;;;8.30;82.10;;;;;;4958994;28;20038;-79
2022/01/19 12:32:00;;;;;;;19.95;18.58;;;8.30;82.10;;;;;;4981584;28;20042;-79
2022/01/19 12:34:26;;;;;;;20.15;18.95;;;8.30;82.10;;;;;;4984643;28;20483;-79
2022/01/19 12:36:58;;;;;;;18.60;17.70;;;8.40;82.00;;;;;;4984271;28;20130;-79
2022/01/19 12:39:27;;;;;;;;;;;8.40;82.00;;;;;;4986599;28;20054;-79
2022/01/19 12:42:22;;;;;;;19.05;18.10;;;8.40;82.10;;;;;;4978497;28;19914;-80
2022/01/19 12:44:50;;;;;;;18.50;17.65;;;8.40;82.00;;;;;;4979359;28;20030;-79
2022/01/19 12:47:28;;;;;;;19.33;18.33;;;8.50;82.00;;;;;;4974442;28;20046;-77
2022/01/19 12:50:03;;;;;;;20.25;19.05;;;8.50;82.00;;;;;;4981103;28;20579;-78
2022/01/19 12:52:31;;;;;;;19.05;18.15;;;8.50;82.00;;;;;;4988453;28;20038;-77
2022/01/19 12:55:00;;;;;;;19.60;18.50;;;8.40;81.90;;;;;;4982055;28;20046;-77
2022/01/19 12:57:29;;;;;;;19.95;18.85;;;8.50;82.00;;;;;;4982911;28;20052;-77
2022/01/19 12:59:55;;;;;;;20.52;19.30;;;8.50;81.90;;;;;;4980271;28;20045;-77
2022/01/19 13:02:27;;;;;;;20.92;19.50;;;8.50;82.00;;;;;;4990320;28;20034;-77
2022/01/19 13:04:54;;;;;;;18.35;17.50;;;8.50;81.90;;;;;;4984282;28;20034;-77
2022/01/19 13:07:22;;;;;;;19.50;18.50;;;8.50;81.90;;;;;;4983762;28;20499;-77
2022/01/19 13:10:25;;;;;;;18.95;18.00;;;8.40;81.90;;;;;;4981028;28;20042;-77
2022/01/19 13:12:58;;;;;;;18.73;17.73;;;8.40;82.00;;;;;;4983008;28;20046;-77
2022/01/19 13:15:51;;;;;;;17.48;16.67;;;8.40;81.80;;;;;;4983605;28;20047;-77
2022/01/19 13:18:19;;;;;;;19.15;18.25;;;8.50;82.00;;;;;;4988723;28;20023;-77
2022/01/19 13:20:52;;;;;;;19.20;18.30;;;8.50;81.90;;;;;;4977322;28;20365;-77
2022/01/19 13:23:18;;;;;;;19.42;18.48;;;8.50;82.00;;;;;;4971536;28;20042;-77
2022/01/19 13:25:44;;;;;;;21.10;19.85;;;8.50;81.90;;;;;;4981488;28;20099;-77
2022/01/19 13:28:10;;;;;;;20.27;19.27;;;8.50;81.90;;;;;;4980926;28;20030;-77
2022/01/19 13:30:37;;;;;;;19.60;18.70;;;8.60;81.90;;;;;;4981359;28;20027;-77
2022/01/19 13:33:10;;;;;;;20.27;19.08;;;8.70;81.80;;;;;;4978803;28;20080;-77
2022/01/19 13:35:37;;;;;;;20.60;19.38;;;8.70;81.70;;;;;;4982698;28;20838;-77
2022/01/19 13:38:10;;;;;;;20.40;19.20;;;8.80;81.60;;;;;;4959764;28;20031;-77
2022/01/19 13:40:36;;;;;;;20.90;19.60;;;8.90;81.60;;;;;;4979445;28;20042;-77
2022/01/19 13:43:08;;;;;;;20.83;19.55;;;8.90;81.30;;;;;;4979315;28;20035;-77
2022/01/19 13:45:47;;;;;;;20.83;19.77;;;9.00;81.20;;;;;;4980540;28;20061;-78
2022/01/19 13:50:44;;;;;;;21.13;19.98;;;9.00;81.20;;;;;;4991078;28;20035;-77
2022/01/19 13:53:10;;;;;;;21.83;20.42;;;9.10;81.20;;;;;;4949949;28;20047;-80
2022/01/19 13:55:37;;;;;;;22.05;20.90;;;9.10;81.20;;;;;;4979586;28;20049;-80
2022/01/19 13:58:11;;;;;;;20.77;19.67;;;9.10;81.20;;;;;;4983426;28;20042;-80
2022/01/19 14:00:49;;;;;;;21.38;20.10;;;9.10;81.10;;;;;;4987297;28;20038;-80
2022/01/19 14:03:15;;;;;;;21.10;20.00;;;9.20;81.10;;;;;;4976333;28;20324;-80
2022/01/19 14:05:46;;;;;;;21.20;20.15;;;9.20;81.00;;;;;;4978359;28;20033;-80
2022/01/19 14:08:12;;;;;;;;;;;9.20;81.00;;;;;;4975695;28;20027;-80
2022/01/19 14:10:46;;;;;;;20.65;19.35;;;9.20;81.00;;;;;;4987618;28;20394;-80